Alban, Wisconsin
Current Conditions -  °F | °C
As of 6:55 PM on Saturday 20 Dec 2014 (Local Time) from KSTE Reporting Station
Overcast Overcast  
Wind Chill: -6°   Ceiling: 1100
Heat Index: -2°   Visibility: 7mi
Dew Point: -4°   Wind: 6mph
Humidity: 88%   Direction: 150°SSE
Pressure: 30.2"   Gusts: NA
Location:  44.6794°N, 89.3392°W
Report Text: KSTE 210055Z AUTO 15005KT 7SM BKN011 OVC017 M02/M04 A3020 RMK AO2 T10231041
Loading
Personal Weather Stations






























Interactive Weather Map New forecast layout! Learn more

10-Day Weather Forecast

Advertisements
Track Severe Weather on mobile